createdAt,value
2022-10-25T00:02:23.572Z,13.90
2022-10-25T00:05:15.646Z,13.90
2022-10-25T00:11:18.869Z,13.90
2022-10-25T00:14:20.575Z,13.90
2022-10-25T00:17:08.338Z,13.90
2022-10-25T00:19:55.722Z,14.00
2022-10-25T00:22:43.113Z,13.90
2022-10-25T00:25:30.348Z,14.00
2022-10-25T00:28:17.408Z,14.00
2022-10-25T00:31:07.733Z,14.00
2022-10-25T00:37:04.710Z,14.00
2022-10-25T00:46:56.452Z,14.00
2022-10-25T00:49:44.379Z,13.90
2022-10-25T00:52:46.230Z,14.10
2022-10-25T00:55:33.725Z,14.00
2022-10-25T01:07:30.467Z,14.00
2022-10-25T01:10:18.162Z,14.00
2022-10-25T01:16:17.419Z,14.00
2022-10-25T01:23:20.498Z,14.00
2022-10-25T01:26:30.227Z,14.00
2022-10-25T01:29:29.583Z,14.10
2022-10-25T01:32:40.900Z,14.10
2022-10-25T01:35:38.015Z,14.10
2022-10-25T01:38:40.964Z,14.20
2022-10-25T01:41:48.619Z,14.20
2022-10-25T01:44:54.328Z,14.10
2022-10-25T02:01:21.867Z,14.00
2022-10-25T02:14:31.459Z,14.10
2022-10-25T02:17:25.395Z,14.00
2022-10-25T02:36:37.989Z,13.90
2022-10-25T02:39:30.597Z,13.90
2022-10-25T02:42:18.926Z,14.00
2022-10-25T02:45:07.132Z,14.00
2022-10-25T02:57:50.889Z,14.00
2022-10-25T03:00:52.700Z,13.90
2022-10-25T03:03:40.444Z,14.00
2022-10-25T03:06:27.713Z,14.00
2022-10-25T03:09:14.846Z,13.90
2022-10-25T03:12:02.316Z,13.90
2022-10-25T03:14:49.779Z,14.00
2022-10-25T03:17:37.189Z,14.00
2022-10-25T03:20:24.637Z,14.00
2022-10-25T03:26:29.376Z,13.90
2022-10-25T03:29:17.045Z,13.90
2022-10-25T03:32:05.623Z,13.90
2022-10-25T03:37:56.282Z,13.90
2022-10-25T03:40:44.033Z,13.90
2022-10-25T03:43:31.781Z,14.00
2022-10-25T03:46:19.263Z,14.00
2022-10-25T03:49:07.207Z,14.00
2022-10-25T03:51:57.874Z,14.00
2022-10-25T03:54:47.516Z,14.00
2022-10-25T03:57:35.285Z,13.90
2022-10-25T04:00:22.971Z,14.00
2022-10-25T04:03:10.778Z,14.00
2022-10-25T04:05:58.221Z,14.00
2022-10-25T04:08:45.685Z,13.90
2022-10-25T04:11:33.426Z,13.90
2022-10-25T04:17:24.062Z,14.00
2022-10-25T04:20:57.562Z,13.90
2022-10-25T04:30:20.204Z,13.90
2022-10-25T04:33:07.878Z,14.00
2022-10-25T04:36:02.649Z,13.90
2022-10-25T04:38:51.581Z,13.90
2022-10-25T04:41:38.643Z,13.90
2022-10-25T04:50:27.221Z,13.90
2022-10-25T04:53:14.696Z,14.00
2022-10-25T04:56:07.100Z,13.80
2022-10-25T05:01:57.507Z,13.90
2022-10-25T05:04:45.021Z,13.80
2022-10-25T05:10:35.802Z,13.80
2022-10-25T05:13:23.593Z,13.80
2022-10-25T05:19:13.258Z,13.80
2022-10-25T05:22:22.353Z,13.80
2022-10-25T05:25:30.612Z,13.80
2022-10-25T05:28:18.332Z,13.70
2022-10-25T05:31:11.864Z,13.70
2022-10-25T05:34:00.829Z,13.70
2022-10-25T05:36:48.271Z,13.80
2022-10-25T05:39:35.694Z,13.70
2022-10-25T05:45:26.975Z,13.70
2022-10-25T05:48:14.434Z,13.80
2022-10-25T05:54:14.517Z,13.80
2022-10-25T06:00:19.087Z,13.80
2022-10-25T06:03:06.969Z,13.80
2022-10-25T06:19:03.115Z,13.60
2022-10-25T06:21:50.576Z,13.60
2022-10-25T06:24:38.427Z,13.70
2022-10-25T06:27:25.841Z,13.60
2022-10-25T06:40:32.122Z,13.50
2022-10-25T06:43:19.662Z,13.60
2022-10-25T06:46:20.317Z,13.60
2022-10-25T06:49:07.971Z,13.60
2022-10-25T06:51:55.745Z,13.60
2022-10-25T06:54:43.233Z,13.70
2022-10-25T06:57:30.661Z,13.70
2022-10-25T07:00:17.995Z,13.70
2022-10-25T07:03:05.436Z,13.80
2022-10-25T07:05:52.927Z,13.70
2022-10-25T07:11:43.298Z,13.80
2022-10-25T07:14:30.729Z,13.70
2022-10-25T07:17:18.361Z,13.80
2022-10-25T07:20:06.010Z,13.60
2022-10-25T07:22:57.701Z,13.70
2022-10-25T07:25:47.339Z,13.60
2022-10-25T07:28:35.053Z,13.60
2022-10-25T07:31:29.901Z,13.60
2022-10-25T07:34:17.431Z,13.60
2022-10-25T07:37:07.088Z,13.60
2022-10-25T07:39:54.548Z,13.70
2022-10-25T07:42:42.861Z,13.60
2022-10-25T07:45:31.567Z,13.50
2022-10-25T07:54:25.501Z,13.70
2022-10-25T07:57:20.024Z,13.80
2022-10-25T08:03:10.804Z,13.80
2022-10-25T08:05:59.591Z,13.90
2022-10-25T08:08:48.114Z,13.90
2022-10-25T08:11:36.228Z,13.80
2022-10-25T08:14:25.111Z,13.90
2022-10-25T08:17:13.389Z,14.00
2022-10-25T08:20:10.267Z,14.00
2022-10-25T08:23:01.417Z,14.10
2022-10-25T08:25:49.021Z,14.20
2022-10-25T08:34:42.345Z,14.60
2022-10-25T08:37:30.530Z,14.40
2022-10-25T08:40:19.664Z,14.40
2022-10-25T08:43:25.053Z,14.40
2022-10-25T08:46:22.007Z,14.60
2022-10-25T08:49:24.104Z,14.90
2022-10-25T08:52:22.242Z,14.80
2022-10-25T08:55:34.956Z,14.80
2022-10-25T08:58:35.023Z,14.80
2022-10-25T09:01:51.801Z,14.80
2022-10-25T09:04:39.434Z,15.00
2022-10-25T09:07:37.407Z,14.80
2022-10-25T09:10:38.994Z,15.00
2022-10-25T09:13:52.845Z,14.90
2022-10-25T09:17:12.191Z,14.90
2022-10-25T09:20:00.060Z,15.10
2022-10-25T09:22:50.645Z,15.10
2022-10-25T09:26:04.223Z,15.00
2022-10-25T09:35:44.597Z,15.50
2022-10-25T09:39:04.878Z,15.60
2022-10-25T09:41:54.494Z,15.40
2022-10-25T09:54:55.152Z,15.00
2022-10-25T09:57:42.757Z,15.10
2022-10-25T10:00:30.299Z,15.10
2022-10-25T10:24:35.486Z,15.20
2022-10-25T10:30:24.621Z,15.30
2022-10-25T10:33:17.574Z,15.20
2022-10-25T10:36:22.213Z,15.30
2022-10-25T10:42:37.908Z,15.50
2022-10-25T10:48:40.337Z,15.50
2022-10-25T10:51:44.769Z,15.70
2022-10-25T10:57:46.914Z,15.60
2022-10-25T11:00:34.958Z,16.00
2022-10-25T11:03:48.805Z,15.80
2022-10-25T11:28:44.122Z,17.60
2022-10-25T11:37:49.154Z,17.20
2022-10-25T11:40:44.156Z,16.50
2022-10-25T11:43:31.321Z,16.30
2022-10-25T11:46:42.143Z,16.20
2022-10-25T11:49:47.703Z,16.30
2022-10-25T11:52:44.980Z,16.90
2022-10-25T11:58:57.146Z,17.90
2022-10-25T12:01:56.581Z,17.80
2022-10-25T12:04:53.413Z,18.40
2022-10-25T12:07:51.869Z,18.70
2022-10-25T12:13:44.809Z,18.60
2022-10-25T12:16:35.741Z,18.70
2022-10-25T12:22:20.188Z,18.60
2022-10-25T12:25:17.149Z,17.90
2022-10-25T12:28:28.968Z,17.60
2022-10-25T12:31:25.070Z,18.00
2022-10-25T12:34:22.600Z,18.50
2022-10-25T12:37:39.062Z,18.30
2022-10-25T12:40:29.054Z,17.90
2022-10-25T12:43:35.744Z,17.80
2022-10-25T12:46:48.365Z,18.10
2022-10-25T12:49:48.191Z,18.50
2022-10-25T12:53:17.807Z,18.30
2022-10-25T12:56:32.465Z,18.50
2022-10-25T13:00:02.135Z,18.50
2022-10-25T13:03:10.318Z,18.90
2022-10-25T13:06:29.363Z,18.70
2022-10-25T13:09:22.182Z,19.30
2022-10-25T13:12:15.640Z,19.50
2022-10-25T13:15:04.321Z,19.50
2022-10-25T13:18:04.426Z,19.00
2022-10-25T13:20:52.930Z,18.70
2022-10-25T13:23:43.226Z,18.70
2022-10-25T13:26:33.639Z,18.60
2022-10-25T13:29:46.127Z,18.40
2022-10-25T13:32:36.068Z,18.40
2022-10-25T13:45:39.792Z,18.80
2022-10-25T13:48:36.147Z,18.10
2022-10-25T13:57:58.853Z,18.10
2022-10-25T14:00:51.625Z,18.30
2022-10-25T14:04:02.919Z,18.40
2022-10-25T14:16:42.639Z,18.50
2022-10-25T14:19:47.410Z,18.10
2022-10-25T14:22:43.641Z,17.70
2022-10-25T14:28:48.579Z,17.60
2022-10-25T14:31:36.349Z,17.80
2022-10-25T14:34:30.176Z,18.10
2022-10-25T14:43:36.154Z,17.50
2022-10-25T14:46:30.219Z,17.50
2022-10-25T14:49:18.146Z,17.50
2022-10-25T14:52:07.943Z,17.30
2022-10-25T14:55:03.165Z,17.10
2022-10-25T14:57:50.634Z,16.90
2022-10-25T15:03:44.580Z,16.80
2022-10-25T15:06:32.844Z,16.80
2022-10-25T15:15:46.664Z,17.30
2022-10-25T15:18:38.290Z,17.40
2022-10-25T15:21:47.543Z,17.20
2022-10-25T15:27:43.294Z,17.30
2022-10-25T15:30:43.478Z,18.50
2022-10-25T15:39:37.189Z,18.60
2022-10-25T15:42:26.760Z,18.50
2022-10-25T15:45:14.436Z,17.80
2022-10-25T15:54:35.576Z,17.10
2022-10-25T15:57:23.448Z,17.10
2022-10-25T16:00:15.666Z,17.10
2022-10-25T16:03:04.699Z,16.90
2022-10-25T16:05:53.045Z,16.80
2022-10-25T16:23:58.004Z,16.30
2022-10-25T16:30:01.777Z,16.20
2022-10-25T16:32:49.801Z,16.10
2022-10-25T16:35:37.226Z,16.20
2022-10-25T16:38:24.377Z,16.20
2022-10-25T16:44:24.714Z,16.10
2022-10-25T16:47:12.141Z,15.90
2022-10-25T16:59:08.787Z,15.90
2022-10-25T17:01:56.334Z,15.80
2022-10-25T17:10:46.041Z,15.70
2022-10-25T17:13:33.728Z,15.70
2022-10-25T17:19:24.933Z,15.60
2022-10-25T17:22:12.125Z,15.60
2022-10-25T17:24:59.651Z,15.60
2022-10-25T17:27:51.374Z,15.50
2022-10-25T17:30:42.308Z,15.40
2022-10-25T17:33:31.796Z,15.30
2022-10-25T17:42:28.826Z,15.30
2022-10-25T17:48:33.160Z,15.20
2022-10-25T17:54:23.740Z,15.10
2022-10-25T17:57:10.862Z,15.10
2022-10-25T18:00:00.474Z,15.10
2022-10-25T18:05:49.916Z,15.00
2022-10-25T18:08:37.633Z,15.00
2022-10-25T18:11:28.273Z,15.00
2022-10-25T18:14:15.956Z,14.90
2022-10-25T18:17:03.365Z,14.90
2022-10-25T18:19:50.488Z,14.90
2022-10-25T18:22:38.017Z,14.80
2022-10-25T18:25:25.646Z,14.80
2022-10-25T18:28:13.070Z,14.80
2022-10-25T18:31:02.222Z,14.70
2022-10-25T18:36:56.059Z,14.80
2022-10-25T18:52:51.101Z,14.70
2022-10-25T18:55:38.587Z,14.60
2022-10-25T18:58:26.147Z,14.60
2022-10-25T19:01:16.750Z,14.70
2022-10-25T19:04:05.200Z,14.50
2022-10-25T19:06:52.655Z,14.50
2022-10-25T19:09:39.762Z,14.60
2022-10-25T19:12:27.286Z,14.60
2022-10-25T19:15:15.483Z,14.60
2022-10-25T19:18:02.986Z,14.50
2022-10-25T19:27:34.202Z,14.40
2022-10-25T19:30:41.642Z,14.30
2022-10-25T19:33:35.876Z,14.30
2022-10-25T19:42:29.159Z,14.40
2022-10-25T19:51:22.652Z,14.30
2022-10-25T19:57:26.313Z,14.20
2022-10-25T20:00:13.926Z,14.10
2022-10-25T20:03:01.626Z,14.20
2022-10-25T20:06:00.246Z,14.20
2022-10-25T20:08:47.553Z,14.20
2022-10-25T20:11:34.646Z,14.20
2022-10-25T20:20:27.539Z,14.00
2022-10-25T20:23:16.090Z,14.20
2022-10-25T20:36:04.592Z,14.10
2022-10-25T20:38:52.369Z,13.90
2022-10-25T20:41:39.995Z,13.90
2022-10-25T20:48:02.857Z,13.90
2022-10-25T20:50:50.141Z,13.90
2022-10-25T20:53:38.478Z,13.90
2022-10-25T20:56:26.038Z,13.90
2022-10-25T20:59:13.530Z,13.90
2022-10-25T21:20:05.114Z,13.80
2022-10-25T21:22:52.234Z,13.80
2022-10-25T21:25:39.570Z,13.70
2022-10-25T21:28:27.226Z,13.70
2022-10-25T21:31:16.022Z,13.70
2022-10-25T21:34:04.582Z,13.70
2022-10-25T21:36:52.810Z,13.60
2022-10-25T21:39:40.538Z,13.60
2022-10-25T21:42:33.580Z,13.70
2022-10-25T21:45:21.015Z,13.70
2022-10-25T21:48:08.523Z,13.60
2022-10-25T21:50:58.510Z,13.60
2022-10-25T21:53:46.315Z,13.70
2022-10-25T21:56:33.516Z,13.70
2022-10-25T21:59:21.769Z,13.60
2022-10-25T22:02:09.506Z,13.60
2022-10-25T22:11:06.915Z,13.50
2022-10-25T22:13:56.188Z,13.40
2022-10-25T22:16:43.905Z,13.50
2022-10-25T22:19:31.306Z,13.50
2022-10-25T22:25:22.345Z,13.30
2022-10-25T22:28:09.930Z,13.30
2022-10-25T22:31:02.773Z,13.30
2022-10-25T22:40:24.201Z,13.30
2022-10-25T22:43:11.492Z,13.20
2022-10-25T23:02:24.451Z,13.00
2022-10-25T23:08:25.866Z,13.00
2022-10-25T23:11:16.305Z,13.00
2022-10-25T23:14:05.168Z,13.10
2022-10-25T23:16:52.729Z,13.00
2022-10-25T23:19:40.185Z,13.00
2022-10-25T23:22:27.642Z,13.00
2022-10-25T23:25:15.212Z,13.00
2022-10-25T23:31:19.830Z,12.90
2022-10-25T23:34:07.427Z,13.00
2022-10-25T23:36:54.887Z,12.90
2022-10-25T23:39:42.272Z,12.90
2022-10-25T23:42:29.852Z,12.90
2022-10-25T23:45:17.298Z,13.00
2022-10-25T23:51:30.869Z,12.90
2022-10-25T23:54:17.980Z,12.90
2022-10-25T23:57:05.447Z,12.90
2022-10-25T23:59:52.905Z,12.90
